createdAt,value
2018-02-03T00:00:19.027Z,84.28
2018-02-03T00:01:00.494Z,84.19
2018-02-03T00:01:40.125Z,83.52
2018-02-03T00:02:20.748Z,83.42
2018-02-03T00:03:01.282Z,84.05
2018-02-03T00:03:41.803Z,84.14
2018-02-03T00:04:22.414Z,83.76
2018-02-03T00:05:02.902Z,83.86
2018-02-03T00:05:43.453Z,84.05
2018-02-03T00:06:23.984Z,83.42
2018-02-03T00:07:04.597Z,83.52
2018-02-03T00:07:45.132Z,83.33
2018-02-03T00:08:25.712Z,83.33
2018-02-03T00:09:06.214Z,82.91
2018-02-03T00:09:46.802Z,83.76
2018-02-03T00:10:27.269Z,83.33
2018-02-03T00:11:07.835Z,83.19
2018-02-03T00:11:48.376Z,82.76
2018-02-03T00:12:28.902Z,83.33
2018-02-03T00:13:09.426Z,83.04
2018-02-03T00:13:49.960Z,83.14
2018-02-03T00:14:30.518Z,82.76
2018-02-03T00:15:11.115Z,82.43
2018-02-03T00:15:51.667Z,82.95
2018-02-03T00:16:32.220Z,82.91
2018-02-03T00:17:12.785Z,82.71
2018-02-03T00:17:53.303Z,82.71
2018-02-03T00:18:33.872Z,83.1
2018-02-03T00:19:14.438Z,82.81
2018-02-03T00:19:54.933Z,83.29
2018-02-03T00:20:35.545Z,83.67
2018-02-03T00:21:16.071Z,83.29
2018-02-03T00:21:56.610Z,83.58
2018-02-03T00:22:37.193Z,83.58
2018-02-03T00:23:17.713Z,84.24
2018-02-03T00:23:58.431Z,84.43
2018-02-03T00:24:38.970Z,83.82
2018-02-03T00:25:19.506Z,84.33
2018-02-03T00:26:00.030Z,84.43
2018-02-03T00:26:40.547Z,84.43
2018-02-03T00:27:21.075Z,83.95
2018-02-03T00:28:01.730Z,84.33
2018-02-03T00:28:42.197Z,83.86
2018-02-03T00:29:22.758Z,83.29
2018-02-03T00:30:03.245Z,84.14
2018-02-03T00:30:43.778Z,83.39
2018-02-03T00:31:24.366Z,84.05
2018-02-03T00:32:04.898Z,83.58
2018-02-03T00:32:45.439Z,84.05
2018-02-03T00:33:26.195Z,83.76
2018-02-03T00:34:06.680Z,83.39
2018-02-03T00:34:47.256Z,83.48
2018-02-03T00:35:27.797Z,83.86
2018-02-03T00:36:08.356Z,83.29
2018-02-03T00:36:49.201Z,83.1
2018-02-03T00:37:30.003Z,83.19
2018-02-03T00:38:10.515Z,83
2018-02-03T00:38:51.063Z,83.1
2018-02-03T00:39:31.647Z,83.39
2018-02-03T00:40:12.189Z,83
2018-02-03T00:40:52.724Z,83.1
2018-02-03T00:41:33.261Z,83.58
2018-02-03T00:42:13.815Z,83.58
2018-02-03T00:42:54.354Z,83.29
2018-02-03T00:43:34.880Z,83.58
2018-02-03T00:44:15.393Z,83.58
2018-02-03T00:44:55.926Z,84.33
2018-02-03T00:45:36.478Z,83.91
2018-02-03T00:46:17.026Z,83.76
2018-02-03T00:46:57.609Z,83.86
2018-02-03T00:47:38.166Z,83.76
2018-02-03T00:48:18.677Z,83.95
2018-02-03T00:48:59.274Z,83.95
2018-02-03T00:49:39.785Z,83.86
2018-02-03T00:50:20.329Z,83.76
2018-02-03T00:51:00.882Z,84.14
2018-02-03T00:51:41.478Z,83.86
2018-02-03T00:52:22.085Z,84.05
2018-02-03T00:53:02.591Z,83.67
2018-02-03T00:53:43.107Z,82.81
2018-02-03T00:54:23.651Z,83.1
2018-02-03T00:55:04.194Z,82.62
2018-02-03T00:55:44.778Z,82.34
2018-02-03T00:56:25.309Z,82.53
2018-02-03T00:57:05.806Z,82.81
2018-02-03T00:57:46.356Z,82.62
2018-02-03T00:58:26.926Z,83
2018-02-03T00:59:07.482Z,82.43
2018-02-03T00:59:48.008Z,82.43
2018-02-03T01:00:28.496Z,82.53
2018-02-03T01:01:09.072Z,83
2018-02-03T01:01:49.608Z,83.06
2018-02-03T01:02:30.163Z,83.29
2018-02-03T01:03:10.726Z,83.48
2018-02-03T01:03:51.221Z,82.81
2018-02-03T01:04:32.387Z,82.24
2018-02-03T01:05:12.970Z,82.53
2018-02-03T01:05:53.554Z,82.81
2018-02-03T01:06:34.051Z,82.53
2018-02-03T01:07:14.628Z,83
2018-02-03T01:07:55.156Z,82.34
2018-02-03T01:08:35.677Z,82.58
2018-02-03T01:09:16.223Z,83.15
2018-02-03T01:09:56.771Z,83.06
2018-02-03T01:10:37.338Z,83.53
2018-02-03T01:11:17.845Z,83.62
2018-02-03T01:11:58.322Z,83.62
2018-02-03T01:12:38.860Z,82.96
2018-02-03T01:13:19.417Z,82.29
2018-02-03T01:13:59.959Z,82.87
2018-02-03T01:14:40.491Z,83.06
2018-02-03T01:15:21.019Z,83.25
2018-02-03T01:16:01.568Z,83.44
2018-02-03T01:16:42.123Z,84.01
2018-02-03T01:17:22.636Z,84.29
2018-02-03T01:18:03.181Z,84.39
2018-02-03T01:18:43.766Z,83.82
2018-02-03T01:19:24.272Z,83.34
2018-02-03T01:20:04.952Z,83.62
2018-02-03T01:20:45.440Z,83.91
2018-02-03T01:21:25.923Z,83.72
2018-02-03T01:22:06.480Z,83.15
2018-02-03T01:22:47.033Z,83.82
2018-02-03T01:23:27.582Z,83.53
2018-02-03T01:24:08.109Z,83.34
2018-02-03T01:24:48.608Z,83.15
2018-02-03T01:25:29.186Z,82.96
2018-02-03T01:26:09.678Z,82.87
2018-02-03T01:26:50.242Z,82.96
2018-02-03T01:27:30.704Z,82.96
2018-02-03T01:28:11.273Z,82.96
2018-02-03T01:28:51.812Z,83.15
2018-02-03T01:29:32.346Z,82.58
2018-02-03T01:30:12.894Z,83.72
2018-02-03T01:30:53.425Z,83.06
2018-02-03T01:31:33.969Z,83.34
2018-02-03T01:32:14.479Z,82.68
2018-02-03T01:32:55.002Z,83.15
2018-02-03T01:33:35.602Z,82.96
2018-02-03T01:34:16.109Z,83.15
2018-02-03T01:34:56.702Z,82.96
2018-02-03T01:35:37.301Z,82.68
2018-02-03T01:36:17.792Z,82.96
2018-02-03T01:36:58.305Z,82.77
2018-02-03T01:37:38.878Z,82.96
2018-02-03T01:38:19.407Z,82.49
2018-02-03T01:38:59.913Z,82.43
2018-02-03T01:39:40.465Z,81.92
2018-02-03T01:40:21.011Z,82.77
2018-02-03T01:41:01.555Z,82.87
2018-02-03T01:41:42.059Z,82.49
2018-02-03T01:42:22.588Z,82.68
2018-02-03T01:43:03.161Z,83.06
2018-02-03T01:43:43.705Z,82.53
2018-02-03T01:44:24.255Z,82.49
2018-02-03T01:45:04.764Z,83.15
2018-02-03T01:45:45.288Z,82.87
2018-02-03T01:46:25.807Z,82.77
2018-02-03T01:47:06.375Z,82.87
2018-02-03T01:47:46.945Z,82.96
2018-02-03T01:48:27.428Z,83.06
2018-02-03T01:49:07.945Z,82.77
2018-02-03T01:49:48.529Z,83.91
2018-02-03T01:50:29.047Z,83.72
2018-02-03T01:51:09.560Z,83.53
2018-02-03T01:51:50.140Z,83.34
2018-02-03T01:52:30.646Z,83.06
2018-02-03T01:53:11.263Z,82.58
2018-02-03T01:53:51.740Z,83.15
2018-02-03T01:54:32.349Z,82.77
2018-02-03T01:55:12.875Z,83.06
2018-02-03T01:55:53.383Z,83.53
2018-02-03T01:56:33.919Z,83.06
2018-02-03T01:57:14.500Z,83.34
2018-02-03T01:57:55.057Z,83.06
2018-02-03T01:58:35.593Z,83
2018-02-03T01:59:16.138Z,82.53
2018-02-03T01:59:56.616Z,82.29
2018-02-03T02:00:37.153Z,82.77
2018-02-03T02:01:17.679Z,82.49
2018-02-03T02:01:58.274Z,82.39
2018-02-03T02:02:38.837Z,82.77
2018-02-03T02:03:19.429Z,82.39
2018-02-03T02:03:59.941Z,83.06
2018-02-03T02:04:40.544Z,82.43
2018-02-03T02:05:21.063Z,83.1
2018-02-03T02:06:01.535Z,82.62
2018-02-03T02:06:42.086Z,82.34
2018-02-03T02:07:22.609Z,82.34
2018-02-03T02:08:03.154Z,82.58
2018-02-03T02:08:43.735Z,82.58
2018-02-03T02:09:24.242Z,82.58
2018-02-03T02:10:04.773Z,82.81
2018-02-03T02:10:45.374Z,82.81
2018-02-03T02:11:25.827Z,82.15
2018-02-03T02:12:06.360Z,82.43
2018-02-03T02:12:46.968Z,83.15
2018-02-03T02:13:27.521Z,82.81
2018-02-03T02:14:08.028Z,82.05
2018-02-03T02:14:48.552Z,81.96
2018-02-03T02:15:29.168Z,82.34
2018-02-03T02:16:09.648Z,82.53
2018-02-03T02:16:50.199Z,82.53
2018-02-03T02:17:30.727Z,82.34
2018-02-03T02:18:11.303Z,82.05
2018-02-03T02:18:51.826Z,82.53
2018-02-03T02:19:32.364Z,82.58
2018-02-03T02:20:12.908Z,82.24
2018-02-03T02:20:53.432Z,82.34
2018-02-03T02:21:33.934Z,82.62
2018-02-03T02:22:14.439Z,82.81
2018-02-03T02:22:54.990Z,82.62
2018-02-03T02:23:35.564Z,82.71
2018-02-03T02:24:16.031Z,82.34
2018-02-03T02:24:56.609Z,82.2
2018-02-03T02:25:37.172Z,82.1
2018-02-03T02:26:17.692Z,83.19
2018-02-03T02:26:58.240Z,83.1
2018-02-03T02:27:38.774Z,82.53
2018-02-03T02:28:19.322Z,83.29
2018-02-03T02:28:59.889Z,82.71
2018-02-03T02:29:40.458Z,82.62
2018-02-03T02:30:20.995Z,82.53
2018-02-03T02:31:01.504Z,82.43
2018-02-03T02:31:42.083Z,82.62
2018-02-03T02:32:22.620Z,82.15
2018-02-03T02:33:03.168Z,82.34
2018-02-03T02:33:43.650Z,82.24
2018-02-03T02:34:24.195Z,82.24
2018-02-03T02:35:04.726Z,82.81
2018-02-03T02:35:45.330Z,82.71
2018-02-03T02:36:25.861Z,82.34
2018-02-03T02:37:06.411Z,82.43
2018-02-03T02:37:46.978Z,81.96
2018-02-03T02:38:27.598Z,82.24
2018-02-03T02:39:08.124Z,82.43
2018-02-03T02:39:48.623Z,82.05
2018-02-03T02:40:29.181Z,82.34
2018-02-03T02:41:09.710Z,82.34
2018-02-03T02:41:50.247Z,82.62
2018-02-03T02:42:30.789Z,82.53
2018-02-03T02:43:11.286Z,81.58
2018-02-03T02:43:51.928Z,81.58
2018-02-03T02:44:32.387Z,81.96
2018-02-03T02:45:12.949Z,82.34
2018-02-03T02:45:53.465Z,82.62
2018-02-03T02:46:34.006Z,82.53
2018-02-03T02:47:14.542Z,83.06
2018-02-03T02:47:55.090Z,82.96
2018-02-03T02:48:35.655Z,83.25
2018-02-03T02:49:16.186Z,83.39
2018-02-03T02:49:56.781Z,82.77
2018-02-03T02:50:37.327Z,83.19
2018-02-03T02:51:17.846Z,82.91
2018-02-03T02:51:58.386Z,82.53
2018-02-03T02:52:38.922Z,81.92
2018-02-03T02:53:19.437Z,82.68
2018-02-03T02:53:59.941Z,82.96
2018-02-03T02:54:40.517Z,82.58
2018-02-03T02:55:21.046Z,82.87
2018-02-03T02:56:01.562Z,83.53
2018-02-03T02:56:42.072Z,83.53
2018-02-03T02:57:22.616Z,84.1
2018-02-03T02:58:03.151Z,84.01
2018-02-03T02:58:43.719Z,83.44
2018-02-03T02:59:24.210Z,83.25
2018-02-03T03:00:04.827Z,83.62
2018-02-03T03:00:45.367Z,83.15
2018-02-03T03:01:25.792Z,83.72
2018-02-03T03:02:06.348Z,83.53
2018-02-03T03:02:46.942Z,83.44
2018-02-03T03:03:27.489Z,83.25
2018-02-03T03:04:08.083Z,83.91
2018-02-03T03:04:48.659Z,83.34
2018-02-03T03:05:29.129Z,83.44
2018-02-03T03:06:09.689Z,83.53
2018-02-03T03:06:50.210Z,83.34
2018-02-03T03:07:30.673Z,83.53
2018-02-03T03:08:11.214Z,83.53
2018-02-03T03:08:51.763Z,83.53
2018-02-03T03:09:32.230Z,83.62
2018-02-03T03:10:12.816Z,84.1
2018-02-03T03:10:53.388Z,84.1
2018-02-03T03:11:33.946Z,84.01
2018-02-03T03:12:14.406Z,84.01
2018-02-03T03:12:54.986Z,83.82
2018-02-03T03:13:35.493Z,84.39
2018-02-03T03:14:16.018Z,83.82
2018-02-03T03:14:56.529Z,83.39
2018-02-03T03:15:37.038Z,83.58
2018-02-03T03:16:17.577Z,83.1
2018-02-03T03:16:58.084Z,83.1
2018-02-03T03:17:38.599Z,82.71
2018-02-03T03:18:19.114Z,82.62
2018-02-03T03:18:59.672Z,83.19
2018-02-03T03:19:40.167Z,82.62
2018-02-03T03:20:20.740Z,82.24
2018-02-03T03:21:01.264Z,82.53
2018-02-03T03:21:41.829Z,82.77
2018-02-03T03:22:22.357Z,82.96
2018-02-03T03:23:02.903Z,83.62
2018-02-03T03:23:43.494Z,83.76
2018-02-03T03:24:24.013Z,83.62
2018-02-03T03:25:04.539Z,83.82
2018-02-03T03:25:45.948Z,83.67
2018-02-03T03:26:26.451Z,83
2018-02-03T03:27:07.026Z,82.62
2018-02-03T03:27:47.601Z,83.19
2018-02-03T03:28:28.121Z,83.1
2018-02-03T03:29:08.715Z,82.81
2018-02-03T03:29:49.194Z,82.81
2018-02-03T03:30:29.701Z,82.81
2018-02-03T03:31:10.242Z,82.91
2018-02-03T03:31:50.782Z,82.43
2018-02-03T03:32:31.327Z,82.91
2018-02-03T03:33:11.846Z,82.43
2018-02-03T03:33:52.348Z,82.62
2018-02-03T03:34:32.932Z,82.91
2018-02-03T03:35:13.465Z,82.34
2018-02-03T03:35:54.032Z,82.62
2018-02-03T03:36:34.546Z,82.81
2018-02-03T03:37:15.093Z,82.71
2018-02-03T03:37:55.707Z,83.1
2018-02-03T03:38:36.196Z,83.1
2018-02-03T03:39:16.735Z,83
2018-02-03T03:39:57.286Z,82.71
2018-02-03T03:40:37.798Z,83.19
2018-02-03T03:41:18.316Z,82.91
2018-02-03T03:41:58.822Z,82.71
2018-02-03T03:42:39.496Z,82.81
2018-02-03T03:43:20.055Z,82.71
2018-02-03T03:44:00.621Z,82.43
2018-02-03T03:44:41.167Z,82.62
2018-02-03T03:45:21.681Z,82.34
2018-02-03T03:46:02.204Z,82.43
2018-02-03T03:46:42.738Z,82.53
2018-02-03T03:47:23.288Z,82.15
2018-02-03T03:48:03.805Z,82.43
2018-02-03T03:48:44.337Z,82.09
2018-02-03T03:49:24.912Z,81.77
2018-02-03T03:50:05.407Z,81.77
2018-02-03T03:50:45.902Z,82.43
2018-02-03T03:51:26.459Z,82.91
2018-02-03T03:52:06.987Z,82.34
2018-02-03T03:52:47.480Z,82.81
2018-02-03T03:53:27.976Z,83.19
2018-02-03T03:54:08.543Z,83.19
2018-02-03T03:54:49.145Z,83.19
2018-02-03T03:55:29.619Z,82.62
2018-02-03T03:56:10.185Z,83.39
2018-02-03T03:56:50.714Z,83.19
2018-02-03T03:57:32.438Z,83.58
2018-02-03T03:58:12.978Z,83.44
2018-02-03T03:58:53.534Z,83.72
2018-02-03T03:59:34.054Z,84.01
2018-02-03T04:00:14.667Z,84.29
2018-02-03T04:00:55.157Z,84.1
2018-02-03T04:01:35.727Z,85.15
2018-02-03T04:02:16.193Z,85.53
2018-02-03T04:02:56.807Z,85.34
2018-02-03T04:03:37.325Z,85.53
2018-02-03T04:04:17.856Z,85.58
2018-02-03T04:04:58.370Z,86.72
2018-02-03T04:05:38.886Z,86.63
2018-02-03T04:06:19.391Z,86.15
2018-02-03T04:06:59.968Z,87.48
2018-02-03T04:07:40.559Z,87.19
2018-02-03T04:08:21.074Z,87.01
2018-02-03T04:09:01.634Z,87.29
2018-02-03T04:09:42.163Z,87.29
2018-02-03T04:10:22.726Z,87.29
2018-02-03T04:11:03.184Z,87.1
2018-02-03T04:11:43.716Z,87.01
2018-02-03T04:12:24.250Z,86.53
2018-02-03T04:13:04.846Z,86.53
2018-02-03T04:13:45.408Z,86.57
2018-02-03T04:14:25.933Z,86.82
2018-02-03T04:15:06.517Z,86.43
2018-02-03T04:15:47.051Z,87.01
2018-02-03T04:16:27.597Z,86.67
2018-02-03T04:17:08.078Z,87.29
2018-02-03T04:17:48.609Z,86.43
2018-02-03T04:18:29.140Z,86.76
2018-02-03T04:19:09.708Z,86.76
2018-02-03T04:19:50.196Z,86.63
2018-02-03T04:20:30.847Z,87.1
2018-02-03T04:21:11.334Z,86.86
2018-02-03T04:21:51.866Z,86.67
2018-02-03T04:22:32.354Z,86.86
2018-02-03T04:23:12.917Z,86.19
2018-02-03T04:23:53.463Z,85.81
2018-02-03T04:24:34.027Z,85.43
2018-02-03T04:25:14.554Z,85.43
2018-02-03T04:25:55.114Z,85.15
2018-02-03T04:26:35.607Z,84.86
2018-02-03T04:27:16.215Z,84.67
2018-02-03T04:27:56.737Z,85.34
2018-02-03T04:28:37.284Z,85.24
2018-02-03T04:29:17.838Z,85.34
2018-02-03T04:29:58.376Z,85.62
2018-02-03T04:30:38.941Z,85.43
2018-02-03T04:31:19.509Z,85.34
2018-02-03T04:32:00.013Z,85.15
2018-02-03T04:32:40.517Z,85.53
2018-02-03T04:33:21.047Z,85.24
2018-02-03T04:34:01.614Z,85.24
2018-02-03T04:34:42.161Z,85.15
2018-02-03T04:35:22.685Z,84.91
2018-02-03T04:36:03.273Z,84.52
2018-02-03T04:36:43.732Z,84.43
2018-02-03T04:37:24.298Z,84.33
2018-02-03T04:38:04.866Z,84.33
2018-02-03T04:38:45.416Z,83.86
2018-02-03T04:39:26.024Z,83.86
2018-02-03T04:40:06.561Z,84.14
2018-02-03T04:40:47.141Z,83.67
2018-02-03T04:41:27.798Z,83.82
2018-02-03T04:42:08.232Z,83.86
2018-02-03T04:42:48.797Z,83.86
2018-02-03T04:43:29.336Z,84.39
2018-02-03T04:44:09.878Z,84.48
2018-02-03T04:44:50.400Z,84.2
2018-02-03T04:45:30.959Z,84.39
2018-02-03T04:46:11.489Z,84.29
2018-02-03T04:46:52.080Z,84.62
2018-02-03T04:47:32.618Z,83.86
2018-02-03T04:48:13.109Z,83.86
2018-02-03T04:48:53.656Z,83.86
2018-02-03T04:49:34.201Z,84.33
2018-02-03T04:50:14.846Z,84.05
2018-02-03T04:50:55.387Z,83.48
2018-02-03T04:51:35.902Z,84.05
2018-02-03T04:52:16.422Z,83.91
2018-02-03T04:52:56.964Z,84.14
2018-02-03T04:53:37.534Z,83.91
2018-02-03T04:54:18.074Z,83.82
2018-02-03T04:54:58.591Z,84.29
2018-02-03T04:55:39.143Z,84.67
2018-02-03T04:56:19.708Z,84.72
2018-02-03T04:57:00.337Z,83.82
2018-02-03T04:57:40.859Z,84.39
2018-02-03T04:58:21.414Z,84.48
2018-02-03T04:59:01.927Z,84.67
2018-02-03T04:59:42.473Z,84.67
2018-02-03T05:00:23.024Z,84.39
2018-02-03T05:01:03.581Z,84.91
2018-02-03T05:01:44.181Z,84.39
2018-02-03T05:02:24.639Z,84.29
2018-02-03T05:03:05.153Z,85.34
2018-02-03T05:03:45.716Z,84.77
2018-02-03T05:04:26.242Z,85.05
2018-02-03T05:05:06.746Z,84.86
2018-02-03T05:05:47.286Z,85.34
2018-02-03T05:06:27.824Z,85.62
2018-02-03T05:07:08.393Z,85.43
2018-02-03T05:07:48.934Z,85.34
2018-02-03T05:08:29.463Z,85.43
2018-02-03T05:09:09.977Z,85.72
2018-02-03T05:09:50.532Z,85.34
2018-02-03T05:10:31.077Z,85.05
2018-02-03T05:11:11.628Z,84.95
2018-02-03T05:11:52.158Z,84.95
2018-02-03T05:12:32.710Z,85.53
2018-02-03T05:13:13.292Z,85.34
2018-02-03T05:13:53.809Z,85.91
2018-02-03T05:14:34.346Z,85.81
2018-02-03T05:15:14.948Z,85.43
2018-02-03T05:15:55.480Z,85.62
2018-02-03T05:16:36.020Z,85.91
2018-02-03T05:17:16.592Z,85.72
2018-02-03T05:17:57.094Z,85.34
2018-02-03T05:18:37.641Z,85.34
2018-02-03T05:19:18.181Z,85.15
2018-02-03T05:19:58.705Z,85.24
2018-02-03T05:20:39.273Z,85.81
2018-02-03T05:21:19.820Z,85.53
2018-02-03T05:22:00.408Z,85.24
2018-02-03T05:22:40.900Z,84.95
2018-02-03T05:23:21.443Z,85.05
2018-02-03T05:24:01.980Z,85.05
2018-02-03T05:24:42.520Z,85.05
2018-02-03T05:25:22.998Z,85.34
2018-02-03T05:26:03.566Z,84.58
2018-02-03T05:26:44.097Z,84.48
2018-02-03T05:27:24.648Z,84.67
2018-02-03T05:28:05.172Z,84.39
2018-02-03T05:28:45.698Z,84.39
2018-02-03T05:29:26.219Z,84.86
2018-02-03T05:30:06.752Z,84.67
2018-02-03T05:30:47.305Z,84.48
2018-02-03T05:31:27.847Z,85.34
2018-02-03T05:32:08.389Z,85.24
2018-02-03T05:32:48.935Z,86
2018-02-03T05:33:29.433Z,85.72
2018-02-03T05:34:10.004Z,85.91
2018-02-03T05:34:50.514Z,85.81
2018-02-03T05:35:31.036Z,85.81
2018-02-03T05:36:11.550Z,85.62
2018-02-03T05:36:52.135Z,85.15
2018-02-03T05:37:32.994Z,85.72
2018-02-03T05:38:13.507Z,85.53
2018-02-03T05:38:54.015Z,85.72
2018-02-03T05:39:34.522Z,85.72
2018-02-03T05:40:15.101Z,85.24
2018-02-03T05:40:55.617Z,85.43
2018-02-03T05:41:36.132Z,84.77
2018-02-03T05:42:16.702Z,85.15
2018-02-03T05:42:57.256Z,84.67
2018-02-03T05:43:37.782Z,85.15
2018-02-03T05:44:18.293Z,84.67
2018-02-03T05:44:58.798Z,84.58
2018-02-03T05:45:39.388Z,84.67
2018-02-03T05:46:19.937Z,84.86
2018-02-03T05:47:00.517Z,84.48
2018-02-03T05:47:41.086Z,85.3
2018-02-03T05:48:21.552Z,85.43
2018-02-03T05:49:02.123Z,85.34
2018-02-03T05:49:42.675Z,86
2018-02-03T05:50:25.184Z,85.91
2018-02-03T05:51:05.798Z,85.91
2018-02-03T05:51:46.255Z,86
2018-02-03T05:52:26.835Z,86
2018-02-03T05:53:07.329Z,85.24
2018-02-03T05:53:47.853Z,84.86
2018-02-03T05:54:28.361Z,84.67
2018-02-03T05:55:08.889Z,84.39
2018-02-03T05:55:49.420Z,84.29
2018-02-03T05:56:29.999Z,84.48
2018-02-03T05:57:10.485Z,84.67
2018-02-03T05:57:51.045Z,83.91
2018-02-03T05:58:31.612Z,84.2
2018-02-03T05:59:12.161Z,84.2
2018-02-03T05:59:52.669Z,84.58
2018-02-03T06:00:33.247Z,84.1
2018-02-03T06:01:13.805Z,84.86
2018-02-03T06:01:54.334Z,84.77
2018-02-03T06:02:34.990Z,84.29
2018-02-03T06:03:15.543Z,84.29
2018-02-03T06:03:56.091Z,84.77
2018-02-03T06:04:36.591Z,84.48
2018-02-03T06:05:17.165Z,84.39
2018-02-03T06:05:57.665Z,84.48
2018-02-03T06:06:38.182Z,83.72
2018-02-03T06:07:18.708Z,84.58
2018-02-03T06:07:59.268Z,83.82
2018-02-03T06:08:39.777Z,84.43
2018-02-03T06:09:20.343Z,84.1
2018-02-03T06:10:00.975Z,84.14
2018-02-03T06:10:41.527Z,83.76
2018-02-03T06:11:22.017Z,83.53
2018-02-03T06:12:02.603Z,83.34
2018-02-03T06:12:43.115Z,84.01
2018-02-03T06:13:23.673Z,83.91
2018-02-03T06:14:04.174Z,83.72
2018-02-03T06:14:44.738Z,83.62
2018-02-03T06:15:25.261Z,84.58
2018-02-03T06:16:05.887Z,84.1
2018-02-03T06:16:46.463Z,84.58
2018-02-03T06:17:26.969Z,84.86
2018-02-03T06:18:07.637Z,85.15
2018-02-03T06:18:48.069Z,84.95
2018-02-03T06:19:28.578Z,84.86
2018-02-03T06:20:09.115Z,85.15
2018-02-03T06:20:49.651Z,84.95
2018-02-03T06:21:30.224Z,85.34
2018-02-03T06:22:10.725Z,85.39
2018-02-03T06:22:51.299Z,85.91
2018-02-03T06:23:31.802Z,85.34
2018-02-03T06:24:12.337Z,86.19
2018-02-03T06:24:52.852Z,86.29
2018-02-03T06:25:33.405Z,86.19
2018-02-03T06:26:13.992Z,86
2018-02-03T06:26:54.540Z,86.38
2018-02-03T06:27:35.075Z,86.29
2018-02-03T06:28:15.595Z,86.24
2018-02-03T06:28:56.182Z,86.34
2018-02-03T06:29:36.689Z,86.57
2018-02-03T06:30:17.230Z,86.19
2018-02-03T06:30:57.753Z,86.1
2018-02-03T06:31:38.337Z,86.29
2018-02-03T06:32:18.796Z,86.38
2018-02-03T06:32:59.333Z,86.19
2018-02-03T06:33:39.914Z,86.29
2018-02-03T06:34:20.454Z,86.19
2018-02-03T06:35:00.972Z,86.29
2018-02-03T06:35:41.635Z,86.19
2018-02-03T06:36:22.200Z,86.15
2018-02-03T06:37:02.716Z,86.24
2018-02-03T06:37:43.250Z,86.15
2018-02-03T06:38:23.828Z,86.43
2018-02-03T06:39:04.312Z,86.72
2018-02-03T06:39:44.871Z,86.72
2018-02-03T06:40:25.411Z,86.72
2018-02-03T06:41:05.960Z,86.86
2018-02-03T06:41:46.412Z,86.76
2018-02-03T06:42:26.956Z,86.67
2018-02-03T06:43:07.546Z,86.91
2018-02-03T06:43:48.053Z,86.67
2018-02-03T06:44:28.564Z,86.86
2018-02-03T06:45:09.128Z,86.86
2018-02-03T06:45:49.634Z,86.76
2018-02-03T06:46:30.225Z,86.19
2018-02-03T06:47:10.768Z,86.19
2018-02-03T06:47:51.290Z,86.29
2018-02-03T06:48:31.902Z,86.29
2018-02-03T06:49:12.437Z,86.29
2018-02-03T06:49:52.955Z,86.29
2018-02-03T06:50:33.553Z,86.47
2018-02-03T06:51:14.051Z,86.19
2018-02-03T06:51:54.615Z,85.62
2018-02-03T06:52:35.128Z,86.19
2018-02-03T06:53:15.730Z,86.24
2018-02-03T06:53:56.248Z,86.72
2018-02-03T06:54:36.788Z,86.53
2018-02-03T06:55:17.286Z,86.24
2018-02-03T06:55:57.806Z,87.29
2018-02-03T06:56:38.385Z,87.76
2018-02-03T06:57:18.927Z,87.38
2018-02-03T06:57:59.453Z,87.67
2018-02-03T06:58:40.022Z,87.29
2018-02-03T06:59:20.610Z,86.91
2018-02-03T07:00:01.107Z,87.01
2018-02-03T07:00:41.735Z,86.82
2018-02-03T07:01:22.226Z,86.63
2018-02-03T07:02:02.789Z,86.72
2018-02-03T07:02:43.340Z,87.48
2018-02-03T07:03:23.868Z,87.19
2018-02-03T07:04:04.405Z,87.67
2018-02-03T07:04:44.892Z,87.19
2018-02-03T07:05:25.454Z,87.67
2018-02-03T07:06:06.015Z,87.38
2018-02-03T07:06:46.540Z,87.19
2018-02-03T07:07:27.054Z,87.48
2018-02-03T07:08:07.759Z,87.19
2018-02-03T07:08:48.295Z,86.82
2018-02-03T07:09:28.795Z,86.95
2018-02-03T07:10:09.344Z,86.57
2018-02-03T07:10:49.822Z,86.63
2018-02-03T07:11:30.447Z,86.91
2018-02-03T07:12:10.995Z,86.72
2018-02-03T07:12:51.510Z,87.1
2018-02-03T07:13:32.094Z,87.14
2018-02-03T07:14:12.601Z,86.47
2018-02-03T07:14:53.201Z,86.57
2018-02-03T07:15:33.806Z,86.72
2018-02-03T07:16:14.455Z,86.63
2018-02-03T07:16:55.022Z,86.82
2018-02-03T07:17:35.553Z,86.43
2018-02-03T07:18:16.077Z,87.19
2018-02-03T07:18:56.658Z,86.91
2018-02-03T07:19:37.208Z,86.82
2018-02-03T07:20:17.751Z,87.48
2018-02-03T07:20:58.348Z,87.57
2018-02-03T07:21:39.011Z,86.91
2018-02-03T07:22:19.555Z,87.1
2018-02-03T07:23:00.054Z,87.57
2018-02-03T07:23:40.645Z,87.38
2018-02-03T07:24:21.240Z,87.38
2018-02-03T07:25:01.795Z,87.95
2018-02-03T07:25:42.355Z,88.24
2018-02-03T07:26:22.916Z,87.86
2018-02-03T07:27:03.403Z,87.38
2018-02-03T07:27:44.012Z,87.38
2018-02-03T07:28:24.531Z,87.67
2018-02-03T07:29:05.059Z,87.86
2018-02-03T07:29:45.614Z,88.05
2018-02-03T07:30:26.253Z,88.05
2018-02-03T07:31:06.783Z,88.34
2018-02-03T07:31:47.315Z,88.24
2018-02-03T07:32:27.855Z,88.05
2018-02-03T07:33:08.346Z,88.05
2018-02-03T07:33:48.957Z,88.05
2018-02-03T07:34:29.562Z,87.76
2018-02-03T07:35:10.086Z,87.76
2018-02-03T07:35:50.742Z,87.76
2018-02-03T07:36:35.924Z,87.48
2018-02-03T07:37:11.904Z,87.19
2018-02-03T07:37:52.490Z,86.91
2018-02-03T07:38:32.938Z,87.67
2018-02-03T07:39:13.430Z,87.38
2018-02-03T07:39:53.968Z,87.57
2018-02-03T07:40:34.504Z,87.67
2018-02-03T07:41:15.124Z,87.67
2018-02-03T07:41:55.641Z,87.95
2018-02-03T07:42:36.359Z,87.76
2018-02-03T07:43:16.843Z,88.05
2018-02-03T07:43:57.438Z,88.15
2018-02-03T07:44:37.915Z,87.01
2018-02-03T07:45:18.461Z,87.48
2018-02-03T07:45:58.981Z,87.67
2018-02-03T07:46:39.554Z,87.95
2018-02-03T07:47:20.181Z,87.57
2018-02-03T07:48:00.873Z,87.67
2018-02-03T07:48:41.387Z,87.95
2018-02-03T07:49:22.060Z,87.86
2018-02-03T07:50:02.768Z,87.95
2018-02-03T07:50:43.418Z,87.76
2018-02-03T07:51:23.818Z,87.48
2018-02-03T07:52:04.339Z,87.29
2018-02-03T07:52:44.967Z,86.86
2018-02-03T07:53:25.525Z,87.19
2018-02-03T07:54:06.083Z,86.82
2018-02-03T07:54:46.619Z,87.19
2018-02-03T07:55:27.216Z,88.34
2018-02-03T07:56:07.665Z,88.43
2018-02-03T07:56:48.228Z,89.09
2018-02-03T07:57:28.740Z,88.24
2018-02-03T07:58:09.391Z,88.71
2018-02-03T07:58:49.887Z,87.95
2018-02-03T07:59:30.601Z,88.05
2018-02-03T08:00:11.204Z,87.71
2018-02-03T08:00:51.734Z,87.34
2018-02-03T08:01:33.089Z,86.86
2018-02-03T08:02:13.644Z,86.43
2018-02-03T08:02:54.167Z,86.82
2018-02-03T08:03:34.738Z,87.19
2018-02-03T08:04:15.275Z,87.1
2018-02-03T08:04:55.795Z,87.48
2018-02-03T08:05:36.458Z,87.19
2018-02-03T08:06:17.008Z,86.82
2018-02-03T08:06:57.542Z,86.91
2018-02-03T08:07:38.054Z,87.01
2018-02-03T08:08:18.707Z,87.1
2018-02-03T08:08:59.841Z,86.91
2018-02-03T08:09:40.271Z,87.48
2018-02-03T08:10:20.846Z,87.38
2018-02-03T08:11:01.381Z,87.1
2018-02-03T08:11:45.170Z,87.19
2018-02-03T08:12:27.363Z,86.91
2018-02-03T08:13:07.898Z,87.48
2018-02-03T08:13:48.436Z,87.48
2018-02-03T08:14:28.959Z,87.48
2018-02-03T08:15:10.415Z,87.95
2018-02-03T08:15:50.836Z,88.15
2018-02-03T08:16:31.434Z,87.29
2018-02-03T08:17:11.957Z,86.91
2018-02-03T08:17:52.442Z,87.19
2018-02-03T08:18:32.997Z,87.19
2018-02-03T08:19:13.485Z,87.95
2018-02-03T08:19:54.194Z,87.76
2018-02-03T08:20:34.699Z,88.15
2018-02-03T08:21:15.286Z,87.95
2018-02-03T08:21:55.860Z,87.1
2018-02-03T08:22:36.507Z,87.48
2018-02-03T08:23:17.050Z,86.95
2018-02-03T08:23:57.600Z,87.38
2018-02-03T08:24:38.155Z,86.91
2018-02-03T08:25:18.673Z,86.72
2018-02-03T08:25:59.168Z,86.82
2018-02-03T08:26:39.759Z,87.19
2018-02-03T08:27:20.309Z,86.95
2018-02-03T08:28:00.887Z,87.05
2018-02-03T08:28:41.476Z,86.76
2018-02-03T08:29:21.947Z,86.29
2018-02-03T08:30:02.570Z,86.15
2018-02-03T08:30:43.118Z,86.67
2018-02-03T08:31:23.686Z,86.53
2018-02-03T08:32:04.391Z,86.63
2018-02-03T08:32:44.945Z,86.53
2018-02-03T08:33:25.450Z,86.67
2018-02-03T08:34:06.009Z,86.67
2018-02-03T08:34:46.539Z,86.19
2018-02-03T08:35:27.228Z,85.81
2018-02-03T08:36:07.722Z,86.1
2018-02-03T08:36:48.255Z,85.34
2018-02-03T08:37:28.811Z,85.34
2018-02-03T08:38:09.336Z,85.91
2018-02-03T08:38:49.925Z,85.62
2018-02-03T08:39:30.452Z,85.53
2018-02-03T08:40:11.027Z,85.68
2018-02-03T08:40:51.508Z,86.38
2018-02-03T08:41:32.196Z,85.72
2018-02-03T08:42:12.733Z,85.77
2018-02-03T08:42:53.274Z,86.1
2018-02-03T08:43:33.761Z,85.72
2018-02-03T08:44:14.447Z,86